sensor_id;sensor_type;location;lat;lon;timestamp;pressure;altitude;pressure_sealevel;temperature;humidity
6393;BME280;3229;42.674;23.282;2023-05-08T00:01:13;94793.16;;;17.02;52.62
6393;BME280;3229;42.674;23.282;2023-05-08T00:03:42;94789.13;;;16.99;52.60
6393;BME280;3229;42.674;23.282;2023-05-08T00:06:09;94791.88;;;16.98;52.68
6393;BME280;3229;42.674;23.282;2023-05-08T00:08:37;94799.19;;;16.94;52.73
6393;BME280;3229;42.674;23.282;2023-05-08T00:11:04;94800.16;;;16.93;52.81
6393;BME280;3229;42.674;23.282;2023-05-08T00:13:31;94802.91;;;16.92;52.95
6393;BME280;3229;42.674;23.282;2023-05-08T00:15:58;94792.94;;;16.89;53.00
6393;BME280;3229;42.674;23.282;2023-05-08T00:18:25;94786.84;;;16.82;53.00
6393;BME280;3229;42.674;23.282;2023-05-08T00:20:52;94803.78;;;16.84;53.18
6393;BME280;3229;42.674;23.282;2023-05-08T00:23:18;94803.94;;;16.83;53.25
6393;BME280;3229;42.674;23.282;2023-05-08T00:25:47;94810.28;;;16.80;53.38
6393;BME280;3229;42.674;23.282;2023-05-08T00:28:14;94809.63;;;16.78;53.40
6393;BME280;3229;42.674;23.282;2023-05-08T00:30:41;94812.41;;;16.76;53.45
6393;BME280;3229;42.674;23.282;2023-05-08T00:33:08;94806.59;;;16.74;53.46
6393;BME280;3229;42.674;23.282;2023-05-08T00:35:35;94807.56;;;16.73;53.73
6393;BME280;3229;42.674;23.282;2023-05-08T00:38:02;94801.91;;;16.70;53.68
6393;BME280;3229;42.674;23.282;2023-05-08T00:40:29;94808.25;;;16.67;53.54
6393;BME280;3229;42.674;23.282;2023-05-08T00:42:57;94815.19;;;16.67;53.79
6393;BME280;3229;42.674;23.282;2023-05-08T00:45:25;94775.91;;;16.48;53.73
6393;BME280;3229;42.674;23.282;2023-05-08T00:47:55;94803.59;;;16.63;53.96
6393;BME280;3229;42.674;23.282;2023-05-08T00:50:22;94801.97;;;16.62;53.88
6393;BME280;3229;42.674;23.282;2023-05-08T00:52:49;94807.31;;;16.60;54.00
6393;BME280;3229;42.674;23.282;2023-05-08T00:55:16;94806.56;;;16.51;54.09
6393;BME280;3229;42.674;23.282;2023-05-08T00:57:45;94820.56;;;16.57;54.15
6393;BME280;3229;42.674;23.282;2023-05-08T01:00:15;94820.72;;;16.55;54.13
6393;BME280;3229;42.674;23.282;2023-05-08T01:02:42;94816.09;;;16.51;54.21
6393;BME280;3229;42.674;23.282;2023-05-08T01:05:10;94818.66;;;16.51;54.33
6393;BME280;3229;42.674;23.282;2023-05-08T01:07:37;94824.81;;;16.50;54.24
6393;BME280;3229;42.674;23.282;2023-05-08T01:10:05;94821.56;;;16.48;54.44
6393;BME280;3229;42.674;23.282;2023-05-08T01:12:39;94814.16;;;16.45;54.55
6393;BME280;3229;42.674;23.282;2023-05-08T01:15:15;94822.88;;;16.44;54.46
6393;BME280;3229;42.674;23.282;2023-05-08T01:17:50;94829.84;;;16.43;54.56
6393;BME280;3229;42.674;23.282;2023-05-08T01:20:33;94830.16;;;16.40;54.63
6393;BME280;3229;42.674;23.282;2023-05-08T01:26:24;94828.09;;;16.36;54.90
6393;BME280;3229;42.674;23.282;2023-05-08T01:32:09;94822.66;;;16.30;54.93
6393;BME280;3229;42.674;23.282;2023-05-08T01:34:41;94821.03;;;16.29;55.12
6393;BME280;3229;42.674;23.282;2023-05-08T01:37:14;94819.59;;;16.27;55.14
6393;BME280;3229;42.674;23.282;2023-05-08T01:39:44;94815.41;;;16.26;55.12
6393;BME280;3229;42.674;23.282;2023-05-08T01:42:17;94805.59;;;16.21;55.17
6393;BME280;3229;42.674;23.282;2023-05-08T01:44:50;94812.72;;;16.19;55.03
6393;BME280;3229;42.674;23.282;2023-05-08T01:47:23;94807.38;;;16.21;55.17
6393;BME280;3229;42.674;23.282;2023-05-08T01:49:57;94817.88;;;16.19;54.95
6393;BME280;3229;42.674;23.282;2023-05-08T01:52:31;94802.72;;;16.16;55.47
6393;BME280;3229;42.674;23.282;2023-05-08T01:55:03;94807.25;;;16.14;55.50
6393;BME280;3229;42.674;23.282;2023-05-08T01:57:33;94802.44;;;16.11;55.55
6393;BME280;3229;42.674;23.282;2023-05-08T02:00:04;94793.47;;;15.99;55.57
6393;BME280;3229;42.674;23.282;2023-05-08T02:02:33;94815.34;;;16.11;55.55
6393;BME280;3229;42.674;23.282;2023-05-08T02:05:02;94804.06;;;16.04;55.48
6393;BME280;3229;42.674;23.282;2023-05-08T02:07:31;94807.91;;;16.08;55.58
6393;BME280;3229;42.674;23.282;2023-05-08T02:10:01;94808.09;;;16.07;55.81
6393;BME280;3229;42.674;23.282;2023-05-08T02:12:30;94808.25;;;16.05;55.69
6393;BME280;3229;42.674;23.282;2023-05-08T02:15:00;94810.03;;;16.04;55.98
6393;BME280;3229;42.674;23.282;2023-05-08T02:17:29;94809.22;;;16.04;55.94
6393;BME280;3229;42.674;23.282;2023-05-08T02:20:00;94807.97;;;16.00;55.89
6393;BME280;3229;42.674;23.282;2023-05-08T02:22:29;94805.56;;;15.98;56.04
6393;BME280;3229;42.674;23.282;2023-05-08T02:24:57;94808.13;;;15.98;55.92
6393;BME280;3229;42.674;23.282;2023-05-08T02:27:27;94811.66;;;15.97;56.04
6393;BME280;3229;42.674;23.282;2023-05-08T02:29:55;94815.88;;;15.98;56.10
6393;BME280;3229;42.674;23.282;2023-05-08T02:32:24;94808.63;;;15.94;56.11
6393;BME280;3229;42.674;23.282;2023-05-08T02:34:53;94808.78;;;15.92;56.11
6393;BME280;3229;42.674;23.282;2023-05-08T02:37:23;94805.59;;;15.90;56.21
6393;BME280;3229;42.674;23.282;2023-05-08T02:39:53;94813.81;;;15.94;56.24
6393;BME280;3229;42.674;23.282;2023-05-08T02:42:22;94820.09;;;15.91;56.26
6393;BME280;3229;42.674;23.282;2023-05-08T02:44:49;94819.28;;;15.91;56.28
6393;BME280;3229;42.674;23.282;2023-05-08T02:47:20;94819.28;;;15.91;56.47
6393;BME280;3229;42.674;23.282;2023-05-08T02:49:52;94799.97;;;15.78;56.45
6393;BME280;3229;42.674;23.282;2023-05-08T02:52:27;94821.06;;;15.90;56.33
6393;BME280;3229;42.674;23.282;2023-05-08T02:54:57;94812.38;;;15.83;56.54
6393;BME280;3229;42.674;23.282;2023-05-08T02:57:32;94786.63;;;15.67;56.44
6393;BME280;3229;42.674;23.282;2023-05-08T03:00:04;94819.59;;;15.88;56.66
6393;BME280;3229;42.674;23.282;2023-05-08T03:02:37;94819.97;;;15.85;56.52
6393;BME280;3229;42.674;23.282;2023-05-08T03:05:11;94821.22;;;15.89;56.60
6393;BME280;3229;42.674;23.282;2023-05-08T03:07:41;94821.22;;;15.89;56.51
6393;BME280;3229;42.674;23.282;2023-05-08T03:10:11;94820.41;;;15.88;56.55
6393;BME280;3229;42.674;23.282;2023-05-08T03:12:43;94823.63;;;15.90;56.59
6393;BME280;3229;42.674;23.282;2023-05-08T03:15:15;94820.88;;;15.92;56.60
6393;BME280;3229;42.674;23.282;2023-05-08T03:17:45;94826.69;;;15.94;56.61
6393;BME280;3229;42.674;23.282;2023-05-08T03:20:15;94829.09;;;15.95;56.66
6393;BME280;3229;42.674;23.282;2023-05-08T03:22:45;94833.94;;;15.98;56.49
6393;BME280;3229;42.674;23.282;2023-05-08T03:25:16;94823.44;;;16.00;56.35
6393;BME280;3229;42.674;23.282;2023-05-08T03:27:44;94826.50;;;16.03;56.40
6393;BME280;3229;42.674;23.282;2023-05-08T03:30:13;94826.16;;;16.07;56.40
6393;BME280;3229;42.674;23.282;2023-05-08T03:32:43;94833.22;;;16.13;56.42
6393;BME280;3229;42.674;23.282;2023-05-08T03:35:12;94832.25;;;16.14;56.32
6393;BME280;3229;42.674;23.282;2023-05-08T03:37:40;94828.19;;;16.19;56.16
6393;BME280;3229;42.674;23.282;2023-05-08T03:40:10;94840.25;;;16.27;56.20
6393;BME280;3229;42.674;23.282;2023-05-08T03:42:39;94838.78;;;16.33;56.35
6393;BME280;3229;42.674;23.282;2023-05-08T03:45:08;94824.91;;;16.34;56.10
6393;BME280;3229;42.674;23.282;2023-05-08T03:47:36;94829.84;;;16.43;56.00
6393;BME280;3229;42.674;23.282;2023-05-08T03:50:04;94841.72;;;16.52;55.84
6393;BME280;3229;42.674;23.282;2023-05-08T03:52:33;94841.66;;;16.61;55.82
6393;BME280;3229;42.674;23.282;2023-05-08T03:55:00;94836.63;;;16.67;55.84
6393;BME280;3229;42.674;23.282;2023-05-08T03:57:33;94834.03;;;16.75;55.56
6393;BME280;3229;42.674;23.282;2023-05-08T04:00:06;94834.13;;;16.82;55.54
6393;BME280;3229;42.674;23.282;2023-05-08T04:02:44;94845.69;;;16.94;55.61
6393;BME280;3229;42.674;23.282;2023-05-08T04:05:19;94830.19;;;16.94;55.19
6393;BME280;3229;42.674;23.282;2023-05-08T04:07:51;94837.97;;;17.09;55.22
6393;BME280;3229;42.674;23.282;2023-05-08T04:10:23;94840.03;;;17.14;55.11
6393;BME280;3229;42.674;23.282;2023-05-08T04:13:01;94830.25;;;17.24;54.96
6393;BME280;3229;42.674;23.282;2023-05-08T04:15:32;94848.56;;;17.37;54.77
6393;BME280;3229;42.674;23.282;2023-05-08T04:18:03;94829.66;;;17.37;54.74
6393;BME280;3229;42.674;23.282;2023-05-08T04:20:34;94840.66;;;17.53;54.46
6393;BME280;3229;42.674;23.282;2023-05-08T04:23:02;94851.00;;;17.68;54.49
6393;BME280;3229;42.674;23.282;2023-05-08T04:25:31;94855.13;;;17.77;54.22
6393;BME280;3229;42.674;23.282;2023-05-08T04:28:00;94860.69;;;17.89;54.17
6393;BME280;3229;42.674;23.282;2023-05-08T04:30:27;94861.41;;;17.98;53.90
6393;BME280;3229;42.674;23.282;2023-05-08T04:32:55;94854.16;;;18.08;53.99
6393;BME280;3229;42.674;23.282;2023-05-08T04:35:23;94855.31;;;18.20;53.84
6393;BME280;3229;42.674;23.282;2023-05-08T04:37:51;94860.84;;;18.32;53.60
6393;BME280;3229;42.674;23.282;2023-05-08T04:40:18;94857.59;;;18.45;53.29
6393;BME280;3229;42.674;23.282;2023-05-08T04:42:44;94855.16;;;18.58;53.22
6393;BME280;3229;42.674;23.282;2023-05-08T04:45:14;94843.97;;;18.72;52.82
6393;BME280;3229;42.674;23.282;2023-05-08T04:47:41;94851.94;;;18.92;52.52
6393;BME280;3229;42.674;23.282;2023-05-08T04:50:09;94848.16;;;19.16;52.20
6393;BME280;3229;42.674;23.282;2023-05-08T04:52:36;94841.41;;;19.43;51.81
6393;BME280;3229;42.674;23.282;2023-05-08T04:55:03;94843.50;;;19.83;51.38
6393;BME280;3229;42.674;23.282;2023-05-08T04:57:30;94840.72;;;20.25;51.22
6393;BME280;3229;42.674;23.282;2023-05-08T04:59:57;94839.66;;;20.68;50.90
6393;BME280;3229;42.674;23.282;2023-05-08T05:02:26;94833.16;;;21.12;50.41
6393;BME280;3229;42.674;23.282;2023-05-08T05:04:52;94842.38;;;21.61;49.81
6393;BME280;3229;42.674;23.282;2023-05-08T05:07:23;94838.66;;;22.08;49.24
6393;BME280;3229;42.674;23.282;2023-05-08T05:09:49;94837.72;;;22.54;48.72
6393;BME280;3229;42.674;23.282;2023-05-08T05:12:16;94833.88;;;23.01;48.06
6393;BME280;3229;42.674;23.282;2023-05-08T05:14:43;94833.84;;;23.51;47.47
6393;BME280;3229;42.674;23.282;2023-05-08T05:17:10;94834.38;;;24.03;46.91
6393;BME280;3229;42.674;23.282;2023-05-08T05:19:38;94842.00;;;24.60;46.11
6393;BME280;3229;42.674;23.282;2023-05-08T05:22:04;94828.41;;;25.12;45.35
6393;BME280;3229;42.674;23.282;2023-05-08T05:24:32;94831.66;;;25.72;45.13
6393;BME280;3229;42.674;23.282;2023-05-08T05:27:00;94830.03;;;26.30;44.40
6393;BME280;3229;42.674;23.282;2023-05-08T05:29:27;94836.53;;;26.96;43.73
6393;BME280;3229;42.674;23.282;2023-05-08T05:31:54;94758.84;;;27.12;43.00
6393;BME280;3229;42.674;23.282;2023-05-08T05:34:22;94832.72;;;28.27;42.14
6393;BME280;3229;42.674;23.282;2023-05-08T05:36:50;94835.56;;;28.91;41.43
6393;BME280;3229;42.674;23.282;2023-05-08T05:39:17;94840.66;;;29.57;40.96
6393;BME280;3229;42.674;23.282;2023-05-08T05:41:44;94836.03;;;30.17;40.32
6393;BME280;3229;42.674;23.282;2023-05-08T05:44:11;94844.75;;;30.80;39.78
6393;BME280;3229;42.674;23.282;2023-05-08T05:46:37;94790.59;;;31.08;38.77
6393;BME280;3229;42.674;23.282;2023-05-08T05:49:04;94848.47;;;32.12;38.42
6393;BME280;3229;42.674;23.282;2023-05-08T05:51:31;94842.66;;;32.80;37.49
6393;BME280;3229;42.674;23.282;2023-05-08T05:53:59;94843.56;;;33.49;36.60
6393;BME280;3229;42.674;23.282;2023-05-08T05:56:26;94840.81;;;34.17;36.27
6393;BME280;3229;42.674;23.282;2023-05-08T05:58:53;94836.56;;;34.83;35.46
6393;BME280;3229;42.674;23.282;2023-05-08T06:01:20;94833.66;;;35.36;34.83
6393;BME280;3229;42.674;23.282;2023-05-08T06:03:48;94838.56;;;35.80;34.46
6393;BME280;3229;42.674;23.282;2023-05-08T06:06:15;94830.31;;;36.09;34.05
6393;BME280;3229;42.674;23.282;2023-05-08T06:08:42;94824.91;;;36.28;33.60
6393;BME280;3229;42.674;23.282;2023-05-08T06:11:10;94833.31;;;36.49;33.22
6393;BME280;3229;42.674;23.282;2023-05-08T06:13:38;94830.03;;;36.66;32.84
6393;BME280;3229;42.674;23.282;2023-05-08T06:16:08;94823.78;;;36.84;32.47
6393;BME280;3229;42.674;23.282;2023-05-08T06:18:35;94827.41;;;37.02;32.53
6393;BME280;3229;42.674;23.282;2023-05-08T06:21:02;94834.31;;;37.26;32.27
6393;BME280;3229;42.674;23.282;2023-05-08T06:23:29;94824.88;;;37.42;31.96
6393;BME280;3229;42.674;23.282;2023-05-08T06:25:57;94823.69;;;37.48;31.90
6393;BME280;3229;42.674;23.282;2023-05-08T06:28:25;94830.78;;;37.53;31.76
6393;BME280;3229;42.674;23.282;2023-05-08T06:30:53;94830.09;;;37.47;31.75
6393;BME280;3229;42.674;23.282;2023-05-08T06:33:20;94807.28;;;37.19;31.73
6393;BME280;3229;42.674;23.282;2023-05-08T06:35:47;94841.00;;;37.14;31.88
6393;BME280;3229;42.674;23.282;2023-05-08T06:38:15;94832.34;;;36.95;31.95
6393;BME280;3229;42.674;23.282;2023-05-08T06:40:43;94838.00;;;36.80;31.86
6393;BME280;3229;42.674;23.282;2023-05-08T06:43:12;94836.81;;;36.72;31.76
6393;BME280;3229;42.674;23.282;2023-05-08T06:45:42;94831.06;;;36.79;32.08
6393;BME280;3229;42.674;23.282;2023-05-08T06:48:09;94837.47;;;37.05;31.63
6393;BME280;3229;42.674;23.282;2023-05-08T06:50:39;94810.88;;;37.14;31.28
6393;BME280;3229;42.674;23.282;2023-05-08T06:53:07;94833.84;;;37.46;30.99
6393;BME280;3229;42.674;23.282;2023-05-08T06:55:34;94835.13;;;37.49;31.22
6393;BME280;3229;42.674;23.282;2023-05-08T06:58:02;94833.53;;;37.48;31.11
6393;BME280;3229;42.674;23.282;2023-05-08T07:00:29;94840.41;;;37.40;31.24
6393;BME280;3229;42.674;23.282;2023-05-08T07:02:58;94848.94;;;37.28;31.40
6393;BME280;3229;42.674;23.282;2023-05-08T07:05:25;94846.13;;;37.11;31.52
6393;BME280;3229;42.674;23.282;2023-05-08T07:07:52;94844.09;;;36.94;31.42
6393;BME280;3229;42.674;23.282;2023-05-08T07:10:19;94848.47;;;36.76;31.64
6393;BME280;3229;42.674;23.282;2023-05-08T07:12:46;94846.81;;;36.53;31.81
6393;BME280;3229;42.674;23.282;2023-05-08T07:15:13;94846.69;;;36.30;31.85
6393;BME280;3229;42.674;23.282;2023-05-08T07:17:41;94843.25;;;36.16;31.72
6393;BME280;3229;42.674;23.282;2023-05-08T07:20:10;94837.28;;;35.91;31.88
6393;BME280;3229;42.674;23.282;2023-05-08T07:22:37;94830.84;;;35.65;32.11
6393;BME280;3229;42.674;23.282;2023-05-08T07:25:05;94831.75;;;35.41;32.06
6393;BME280;3229;42.674;23.282;2023-05-08T07:27:31;94846.94;;;35.22;31.90
6393;BME280;3229;42.674;23.282;2023-05-08T07:29:58;94835.53;;;35.03;32.34
6393;BME280;3229;42.674;23.282;2023-05-08T07:32:28;94842.31;;;34.90;32.31
6393;BME280;3229;42.674;23.282;2023-05-08T07:34:56;94840.31;;;34.82;32.23
6393;BME280;3229;42.674;23.282;2023-05-08T07:37:24;94842.44;;;34.80;32.06
6393;BME280;3229;42.674;23.282;2023-05-08T07:39:51;94832.19;;;34.73;32.29
6393;BME280;3229;42.674;23.282;2023-05-08T07:42:18;94836.13;;;34.76;32.24
6393;BME280;3229;42.674;23.282;2023-05-08T07:44:45;94843.03;;;34.77;32.26
6393;BME280;3229;42.674;23.282;2023-05-08T07:47:12;94849.47;;;34.70;32.21
6393;BME280;3229;42.674;23.282;2023-05-08T07:49:39;94843.75;;;34.63;32.01
6393;BME280;3229;42.674;23.282;2023-05-08T07:52:06;94841.94;;;34.59;32.00
6393;BME280;3229;42.674;23.282;2023-05-08T07:54:34;94844.59;;;34.59;32.34
6393;BME280;3229;42.674;23.282;2023-05-08T07:57:01;94847.34;;;34.73;32.21
6393;BME280;3229;42.674;23.282;2023-05-08T07:59:27;94850.63;;;34.83;32.23
6393;BME280;3229;42.674;23.282;2023-05-08T08:01:54;94846.25;;;34.98;32.06
6393;BME280;3229;42.674;23.282;2023-05-08T08:04:21;94850.84;;;35.11;31.92
6393;BME280;3229;42.674;23.282;2023-05-08T08:06:49;94850.72;;;35.35;31.75
6393;BME280;3229;42.674;23.282;2023-05-08T08:09:16;94846.09;;;35.59;31.64
6393;BME280;3229;42.674;23.282;2023-05-08T08:11:44;94857.78;;;35.91;31.53
6393;BME280;3229;42.674;23.282;2023-05-08T08:14:11;94858.72;;;36.14;31.37
6393;BME280;3229;42.674;23.282;2023-05-08T08:16:37;94856.25;;;36.31;31.21
6393;BME280;3229;42.674;23.282;2023-05-08T08:19:04;94853.13;;;36.57;31.17
6393;BME280;3229;42.674;23.282;2023-05-08T08:21:31;94852.13;;;36.80;31.04
6393;BME280;3229;42.674;23.282;2023-05-08T08:23:58;94838.34;;;36.87;30.68
6393;BME280;3229;42.674;23.282;2023-05-08T08:26:25;94850.88;;;37.00;30.68
6393;BME280;3229;42.674;23.282;2023-05-08T08:28:53;94843.78;;;36.96;30.55
6393;BME280;3229;42.674;23.282;2023-05-08T08:31:20;94841.53;;;36.89;30.77
6393;BME280;3229;42.674;23.282;2023-05-08T08:33:46;94836.59;;;36.82;30.78
6393;BME280;3229;42.674;23.282;2023-05-08T08:36:14;94819.53;;;36.70;31.02
6393;BME280;3229;42.674;23.282;2023-05-08T08:38:41;94827.97;;;36.63;30.77
6393;BME280;3229;42.674;23.282;2023-05-08T08:41:08;94833.00;;;36.51;30.89
6393;BME280;3229;42.674;23.282;2023-05-08T08:43:35;94824.03;;;36.33;31.25
6393;BME280;3229;42.674;23.282;2023-05-08T08:46:10;94816.41;;;36.12;31.31
6393;BME280;3229;42.674;23.282;2023-05-08T08:48:43;94728.06;;;35.36;31.33
6393;BME280;3229;42.674;23.282;2023-05-08T08:51:13;94808.28;;;35.62;31.59
6393;BME280;3229;42.674;23.282;2023-05-08T08:53:45;94817.09;;;35.58;31.55
6393;BME280;3229;42.674;23.282;2023-05-08T08:56:15;94811.19;;;35.47;31.53
6393;BME280;3229;42.674;23.282;2023-05-08T08:58:46;94805.06;;;35.28;31.65
6393;BME280;3229;42.674;23.282;2023-05-08T09:01:17;94798.78;;;35.05;32.00
6393;BME280;3229;42.674;23.282;2023-05-08T09:03:45;94792.25;;;34.78;32.10
6393;BME280;3229;42.674;23.282;2023-05-08T09:06:12;94670.94;;;33.69;32.13
6393;BME280;3229;42.674;23.282;2023-05-08T09:08:39;94779.81;;;34.12;32.39
6393;BME280;3229;42.674;23.282;2023-05-08T09:11:06;94786.28;;;33.77;32.80
6393;BME280;3229;42.674;23.282;2023-05-08T09:13:33;94775.19;;;33.40;32.86
6393;BME280;3229;42.674;23.282;2023-05-08T09:16:00;94774.94;;;33.08;33.26
6393;BME280;3229;42.674;23.282;2023-05-08T09:18:29;94770.88;;;32.76;33.46
6393;BME280;3229;42.674;23.282;2023-05-08T09:20:56;94756.75;;;32.46;33.48
6393;BME280;3229;42.674;23.282;2023-05-08T09:23:24;94693.78;;;31.84;33.92
6393;BME280;3229;42.674;23.282;2023-05-08T09:25:51;94744.25;;;31.97;33.97
6393;BME280;3229;42.674;23.282;2023-05-08T09:28:20;94742.44;;;31.78;34.19
6393;BME280;3229;42.674;23.282;2023-05-08T09:30:48;94752.00;;;31.63;34.46
6393;BME280;3229;42.674;23.282;2023-05-08T09:33:17;94751.50;;;31.51;34.08
6393;BME280;3229;42.674;23.282;2023-05-08T09:35:45;94743.88;;;31.39;34.52
6393;BME280;3229;42.674;23.282;2023-05-08T09:38:33;94655.91;;;30.62;34.47
6393;BME280;3229;42.674;23.282;2023-05-08T09:41:09;94764.72;;;31.15;34.56
6393;BME280;3229;42.674;23.282;2023-05-08T09:43:37;94781.63;;;31.04;34.83
6393;BME280;3229;42.674;23.282;2023-05-08T09:46:22;94761.28;;;30.84;34.54
6393;BME280;3229;42.674;23.282;2023-05-08T09:48:49;94770.28;;;30.88;34.61
6393;BME280;3229;42.674;23.282;2023-05-08T09:51:19;94773.44;;;30.90;34.63
6393;BME280;3229;42.674;23.282;2023-05-08T09:53:49;94772.91;;;30.93;34.77
6393;BME280;3229;42.674;23.282;2023-05-08T09:56:28;94722.41;;;30.69;35.00
6393;BME280;3229;42.674;23.282;2023-05-08T09:58:55;94775.56;;;31.09;34.37
6393;BME280;3229;42.674;23.282;2023-05-08T10:01:30;94772.66;;;31.15;34.37
6393;BME280;3229;42.674;23.282;2023-05-08T10:03:57;94765.50;;;31.21;34.57
6393;BME280;3229;42.674;23.282;2023-05-08T10:06:26;94765.50;;;31.26;34.80
6393;BME280;3229;42.674;23.282;2023-05-08T10:09:07;94756.78;;;31.20;34.45
6393;BME280;3229;42.674;23.282;2023-05-08T10:11:34;94766.06;;;31.28;34.55
6393;BME280;3229;42.674;23.282;2023-05-08T10:14:01;94744.91;;;31.18;34.48
6393;BME280;3229;42.674;23.282;2023-05-08T10:16:28;94762.13;;;31.31;34.50
6393;BME280;3229;42.674;23.282;2023-05-08T10:18:59;94754.97;;;31.36;34.69
6393;BME280;3229;42.674;23.282;2023-05-08T10:21:34;94753.63;;;31.39;34.68
6393;BME280;3229;42.674;23.282;2023-05-08T10:24:04;94748.09;;;31.40;34.74
6393;BME280;3229;42.674;23.282;2023-05-08T10:26:33;94739.63;;;31.33;34.69
6393;BME280;3229;42.674;23.282;2023-05-08T10:29:06;94731.69;;;31.33;34.48
6393;BME280;3229;42.674;23.282;2023-05-08T10:31:35;94747.28;;;31.45;34.48
6393;BME280;3229;42.674;23.282;2023-05-08T10:34:04;94742.78;;;31.51;34.62
6393;BME280;3229;42.674;23.282;2023-05-08T10:36:34;94744.38;;;31.57;34.39
6393;BME280;3229;42.674;23.282;2023-05-08T10:39:02;94738.00;;;31.63;34.46
6393;BME280;3229;42.674;23.282;2023-05-08T10:41:31;94743.00;;;31.69;34.39
6393;BME280;3229;42.674;23.282;2023-05-08T10:43:58;94716.56;;;31.64;34.32
6393;BME280;3229;42.674;23.282;2023-05-08T10:46:32;94724.19;;;31.76;34.20
6393;BME280;3229;42.674;23.282;2023-05-08T10:49:12;94726.81;;;31.81;34.23
6393;BME280;3229;42.674;23.282;2023-05-08T10:51:48;94726.03;;;31.86;34.33
6393;BME280;3229;42.674;23.282;2023-05-08T10:54:25;94721.03;;;31.84;34.48
6393;BME280;3229;42.674;23.282;2023-05-08T10:57:07;94724.44;;;31.90;34.50
6393;BME280;3229;42.674;23.282;2023-05-08T10:59:34;94717.03;;;31.92;34.01
6393;BME280;3229;42.674;23.282;2023-05-08T11:02:06;94717.03;;;31.92;34.01
6393;BME280;3229;42.674;23.282;2023-05-08T11:04:33;94710.97;;;31.91;34.26
6393;BME280;3229;42.674;23.282;2023-05-08T11:07:02;94642.88;;;31.42;34.07
6393;BME280;3229;42.674;23.282;2023-05-08T11:09:44;94709.38;;;31.80;34.22
6393;BME280;3229;42.674;23.282;2023-05-08T11:12:22;94680.09;;;31.61;34.44
6393;BME280;3229;42.674;23.282;2023-05-08T11:14:57;94697.25;;;31.69;34.45
6393;BME280;3229;42.674;23.282;2023-05-08T11:17:25;94686.44;;;31.65;34.44
6393;BME280;3229;42.674;23.282;2023-05-08T11:19:57;94632.06;;;31.29;34.62
6393;BME280;3229;42.674;23.282;2023-05-08T11:22:27;94661.94;;;31.39;34.63
6393;BME280;3229;42.674;23.282;2023-05-08T11:24:59;94682.22;;;31.54;34.75
6393;BME280;3229;42.674;23.282;2023-05-08T11:28:08;94673.00;;;31.46;34.36
6393;BME280;3229;42.674;23.282;2023-05-08T11:30:35;94673.28;;;31.40;34.82
6393;BME280;3229;42.674;23.282;2023-05-08T11:33:28;94667.47;;;31.33;35.02
6393;BME280;3229;42.674;23.282;2023-05-08T11:35:58;94647.41;;;31.11;34.90
6393;BME280;3229;42.674;23.282;2023-05-08T11:38:31;94535.00;;;30.29;34.77
6393;BME280;3229;42.674;23.282;2023-05-08T11:41:04;94660.38;;;31.03;35.16
6393;BME280;3229;42.674;23.282;2023-05-08T11:46:39;94654.59;;;30.85;35.12
6393;BME280;3229;42.674;23.282;2023-05-08T11:49:10;94636.38;;;30.73;35.02
6393;BME280;3229;42.674;23.282;2023-05-08T11:51:37;94640.84;;;30.68;35.29
6393;BME280;3229;42.674;23.282;2023-05-08T11:54:11;94628.69;;;30.62;34.97
6393;BME280;3229;42.674;23.282;2023-05-08T11:56:38;94624.47;;;30.56;35.41
6393;BME280;3229;42.674;23.282;2023-05-08T11:59:06;94634.50;;;30.59;34.91
6393;BME280;3229;42.674;23.282;2023-05-08T12:01:34;94624.72;;;30.64;35.05
6393;BME280;3229;42.674;23.282;2023-05-08T12:04:05;94633.19;;;30.71;35.09
6393;BME280;3229;42.674;23.282;2023-05-08T12:06:34;94627.91;;;30.77;34.70
6393;BME280;3229;42.674;23.282;2023-05-08T12:09:02;94541.59;;;30.21;34.79
6393;BME280;3229;42.674;23.282;2023-05-08T12:11:31;94627.63;;;30.68;34.83
6393;BME280;3229;42.674;23.282;2023-05-08T12:13:58;94619.47;;;30.54;34.97
6393;BME280;3229;42.674;23.282;2023-05-08T12:16:25;94621.56;;;30.47;34.92
6393;BME280;3229;42.674;23.282;2023-05-08T12:18:55;94620.78;;;30.36;35.17
6393;BME280;3229;42.674;23.282;2023-05-08T12:21:22;94615.75;;;30.24;35.28
6393;BME280;3229;42.674;23.282;2023-05-08T12:23:49;94613.59;;;30.11;35.40
6393;BME280;3229;42.674;23.282;2023-05-08T12:26:16;94617.78;;;29.97;35.35
6393;BME280;3229;42.674;23.282;2023-05-08T12:28:45;94621.47;;;29.86;35.90
6393;BME280;3229;42.674;23.282;2023-05-08T12:31:12;94612.75;;;29.75;35.57
6393;BME280;3229;42.674;23.282;2023-05-08T12:33:40;94612.19;;;29.68;36.11
6393;BME280;3229;42.674;23.282;2023-05-08T12:36:07;94612.16;;;29.63;35.86
6393;BME280;3229;42.674;23.282;2023-05-08T12:38:34;94613.97;;;29.57;36.01
6393;BME280;3229;42.674;23.282;2023-05-08T12:41:01;94613.94;;;29.52;35.83
6393;BME280;3229;42.674;23.282;2023-05-08T12:43:32;94610.22;;;29.48;36.03
6393;BME280;3229;42.674;23.282;2023-05-08T12:46:00;94616.81;;;29.45;36.08
6393;BME280;3229;42.674;23.282;2023-05-08T12:48:27;94603.34;;;29.37;35.96
6393;BME280;3229;42.674;23.282;2023-05-08T12:51:00;94613.84;;;29.32;36.32
6393;BME280;3229;42.674;23.282;2023-05-08T12:53:29;94511.56;;;28.61;36.41
6393;BME280;3229;42.674;23.282;2023-05-08T12:55:57;94609.84;;;29.19;36.04
6393;BME280;3229;42.674;23.282;2023-05-08T12:58:25;94604.81;;;29.17;36.50
6393;BME280;3229;42.674;23.282;2023-05-08T13:00:52;94594.28;;;29.17;36.70
6393;BME280;3229;42.674;23.282;2023-05-08T13:03:24;94589.00;;;29.17;36.63
6393;BME280;3229;42.674;23.282;2023-05-08T13:05:52;94601.69;;;29.20;36.59
6393;BME280;3229;42.674;23.282;2023-05-08T13:08:19;94593.78;;;29.20;36.22
6393;BME280;3229;42.674;23.282;2023-05-08T13:10:48;94595.88;;;29.18;36.37
6393;BME280;3229;42.674;23.282;2023-05-08T13:13:16;94546.94;;;28.80;36.50
6393;BME280;3229;42.674;23.282;2023-05-08T13:15:43;94607.66;;;29.06;36.60
6393;BME280;3229;42.674;23.282;2023-05-08T13:18:11;94613.88;;;28.94;36.63
6393;BME280;3229;42.674;23.282;2023-05-08T13:20:39;94615.38;;;28.80;37.15
6393;BME280;3229;42.674;23.282;2023-05-08T13:23:07;94613.66;;;28.59;37.14
6393;BME280;3229;42.674;23.282;2023-05-08T13:25:35;94624.09;;;28.48;37.44
6393;BME280;3229;42.674;23.282;2023-05-08T13:28:03;94626.00;;;28.31;37.78
6393;BME280;3229;42.674;23.282;2023-05-08T13:30:30;94633.22;;;28.14;38.11